Kommunar, Russia
Current Conditions -  °F | °C
As of 11:30 AM on Wednesday 22 Oct 2014 (Local Time) from UNAA Reporting Station
Broken Clouds Broken Clouds  
Wind Chill: 27°   Ceiling: 13000
Heat Index: 36°   Visibility: 6mi
Dew Point: 25°   Wind: 13mph
Humidity: 65%   Direction: 220°SW
Pressure: 30.21"   Gusts: NA
Location:  54.33°N, 89.28°E
Report Text: UNAA 220430Z 22006MPS 9999 SCT030CB BKN130 02/M04 Q1023 NOSIGRMK QFE745 20190060
Loading
Personal Weather Stations






























Interactive Weather Map
Tropical Storm Tracking
New forecast layout! Learn more

10-Day Weather Forecast

Advertisements
Track Severe Weather on mobile